createdAt,value
2023-05-05T00:01:05.003Z,102055.56
2023-05-05T00:03:35.327Z,102061.63
2023-05-05T00:06:03.682Z,102049.56
2023-05-05T00:08:31.779Z,102045.22
2023-05-05T00:10:59.646Z,102050.38
2023-05-05T00:13:27.823Z,102042.59
2023-05-05T00:15:55.737Z,102050.25
2023-05-05T00:18:25.004Z,102041.66
2023-05-05T00:20:53.338Z,102034.81
2023-05-05T00:23:21.353Z,102028.72
2023-05-05T00:25:49.264Z,102036.50
2023-05-05T00:28:17.177Z,102045.06
2023-05-05T00:30:45.148Z,102039.09
2023-05-05T00:33:13.308Z,102047.75
2023-05-05T00:35:42.724Z,102033.97
2023-05-05T00:38:10.619Z,102033.09
2023-05-05T00:40:38.962Z,102027.03
2023-05-05T00:43:07.694Z,102033.03
2023-05-05T00:45:37.075Z,102024.47
2023-05-05T00:48:05.466Z,102029.59
2023-05-05T00:50:33.395Z,102031.25
2023-05-05T00:53:03.453Z,102027.78
2023-05-05T00:55:31.857Z,102039.81
2023-05-05T00:58:00.596Z,102020.88
2023-05-05T01:00:29.003Z,102026.84
2023-05-05T01:02:57.225Z,102027.69
2023-05-05T01:05:25.871Z,102027.72
2023-05-05T01:08:07.201Z,102012.16
2023-05-05T01:10:37.981Z,102013.88
2023-05-05T01:13:15.080Z,102008.72
2023-05-05T01:15:47.550Z,102007.00
2023-05-05T01:18:20.033Z,102009.59
2023-05-05T01:20:52.683Z,101993.22
2023-05-05T01:23:50.163Z,101992.34
2023-05-05T01:26:35.986Z,101989.72
2023-05-05T01:29:15.604Z,101992.34
2023-05-05T01:31:51.790Z,101982.88
2023-05-05T01:34:25.216Z,101978.53
2023-05-05T01:36:58.223Z,101977.69
2023-05-05T01:39:27.199Z,101986.31
2023-05-05T01:41:58.929Z,101967.28
2023-05-05T01:44:29.057Z,101962.09
2023-05-05T01:46:59.931Z,101962.16
2023-05-05T01:49:28.932Z,101969.91
2023-05-05T01:51:59.549Z,101962.16
2023-05-05T01:54:29.974Z,101963.09
2023-05-05T01:56:58.631Z,101966.50
2023-05-05T01:59:27.658Z,101965.63
2023-05-05T02:01:56.387Z,101957.91
2023-05-05T02:04:26.175Z,101956.16
2023-05-05T02:06:54.617Z,101957.00
2023-05-05T02:09:22.695Z,101946.75
2023-05-05T02:11:50.675Z,101950.09
2023-05-05T02:14:20.779Z,101942.38
2023-05-05T02:16:48.670Z,101951.84
2023-05-05T02:19:17.274Z,101940.63
2023-05-05T02:21:46.522Z,101942.41
2023-05-05T02:24:14.427Z,101942.44
2023-05-05T02:26:44.333Z,101927.75
2023-05-05T02:29:17.826Z,101927.78
2023-05-05T02:31:49.973Z,101931.25
2023-05-05T02:34:27.765Z,101943.34
2023-05-05T02:36:59.712Z,101939.88
2023-05-05T02:39:33.327Z,101932.13
2023-05-05T02:42:05.005Z,101930.41
2023-05-05T02:44:34.167Z,101927.75
2023-05-05T02:47:03.871Z,101932.09
2023-05-05T02:49:32.604Z,101932.09
2023-05-05T02:52:02.538Z,101927.78
2023-05-05T02:54:35.216Z,101936.41
2023-05-05T02:57:08.803Z,101923.44
2023-05-05T02:59:47.384Z,101924.31
2023-05-05T03:02:21.371Z,101930.41
2023-05-05T03:04:51.813Z,101939.88
2023-05-05T03:07:27.396Z,101945.91
2023-05-05T03:09:59.047Z,101944.19
2023-05-05T03:12:29.748Z,101945.03
2023-05-05T03:15:10.339Z,101953.69
2023-05-05T03:17:39.075Z,101961.47
2023-05-05T03:20:08.835Z,101959.69
2023-05-05T03:22:41.849Z,101980.34
2023-05-05T03:25:13.647Z,101969.13
2023-05-05T03:27:42.122Z,101981.22
2023-05-05T03:30:12.741Z,101992.41
2023-05-05T03:32:47.854Z,102004.50
2023-05-05T03:35:16.156Z,102012.25
2023-05-05T03:37:45.727Z,102020.91
2023-05-05T03:40:17.725Z,102025.22
2023-05-05T03:42:45.840Z,102020.88
2023-05-05T03:45:14.203Z,102036.41
2023-05-05T03:47:42.236Z,102028.66
2023-05-05T03:50:11.366Z,102037.25
2023-05-05T03:52:39.884Z,102033.84
2023-05-05T03:55:10.241Z,102027.78
2023-05-05T03:57:38.134Z,102039.88
2023-05-05T04:00:11.822Z,102035.53
2023-05-05T04:02:45.562Z,102038.09
2023-05-05T04:05:16.240Z,102052.78
2023-05-05T04:07:44.660Z,102055.44
2023-05-05T04:10:13.939Z,102049.34
2023-05-05T04:12:41.938Z,102055.38
2023-05-05T04:15:11.012Z,102062.41
2023-05-05T04:17:39.070Z,102071.88
2023-05-05T04:20:08.540Z,102070.91
2023-05-05T04:22:36.944Z,102084.75
2023-05-05T04:25:06.638Z,102110.59
2023-05-05T04:27:36.275Z,102099.41
2023-05-05T04:30:05.719Z,102108.91
2023-05-05T04:32:35.034Z,102102.00
2023-05-05T04:35:02.987Z,102117.56
2023-05-05T04:37:31.285Z,102127.03
2023-05-05T04:40:00.491Z,102127.91
2023-05-05T04:42:29.291Z,102113.31
2023-05-05T04:44:59.266Z,102136.69
2023-05-05T04:47:27.304Z,102128.84
2023-05-05T04:49:56.048Z,102127.91
2023-05-05T04:52:24.104Z,102134.91
2023-05-05T04:54:53.052Z,102116.81
2023-05-05T04:57:20.968Z,102134.00
2023-05-05T04:59:48.968Z,102128.91
2023-05-05T05:02:18.356Z,102128.97
2023-05-05T05:04:46.851Z,102141.88
2023-05-05T05:07:15.480Z,102141.03
2023-05-05T05:09:43.725Z,102141.84
2023-05-05T05:12:11.654Z,102138.41
2023-05-05T05:14:39.618Z,102124.69
2023-05-05T05:17:08.014Z,102147.97
2023-05-05T05:19:37.385Z,102166.09
2023-05-05T05:22:05.658Z,102157.44
2023-05-05T05:24:36.739Z,102153.97
2023-05-05T05:27:09.828Z,102164.41
2023-05-05T05:29:38.828Z,102172.16
2023-05-05T05:32:06.995Z,102189.41
2023-05-05T05:34:35.454Z,102160.91
2023-05-05T05:37:05.985Z,102178.25
2023-05-05T05:39:34.289Z,102153.25
2023-05-05T05:42:02.834Z,102141.13
2023-05-05T05:44:31.111Z,102151.50
2023-05-05T05:46:59.686Z,102159.28
2023-05-05T05:49:28.082Z,102155.78
2023-05-05T05:51:56.883Z,102160.13
2023-05-05T05:54:26.578Z,102156.66
2023-05-05T05:56:54.464Z,102168.75
2023-05-05T05:59:22.569Z,102157.63
2023-05-05T06:01:50.534Z,102167.13
2023-05-05T06:04:18.704Z,102175.75
2023-05-05T06:06:46.650Z,102199.03
2023-05-05T06:09:14.959Z,102175.81
2023-05-05T06:11:44.719Z,102194.78
2023-05-05T06:14:12.707Z,102176.72
2023-05-05T06:16:40.774Z,102168.94
2023-05-05T06:19:12.596Z,102169.78
2023-05-05T06:21:40.865Z,102168.94
2023-05-05T06:24:08.824Z,102171.56
2023-05-05T06:26:36.932Z,102175.91
2023-05-05T06:29:06.828Z,102173.34
2023-05-05T06:31:34.701Z,102178.53
2023-05-05T06:34:02.959Z,102185.50
2023-05-05T06:36:32.041Z,102182.03
2023-05-05T06:38:59.963Z,102179.44
2023-05-05T06:41:27.835Z,102189.81
2023-05-05T06:43:58.548Z,102185.47
2023-05-05T06:46:28.230Z,102179.47
2023-05-05T06:48:56.200Z,102189.06
2023-05-05T06:51:24.056Z,102194.28
2023-05-05T06:53:52.324Z,102182.22
2023-05-05T06:56:20.226Z,102188.31
2023-05-05T06:58:48.097Z,102172.75
2023-05-05T07:01:16.032Z,102197.00
2023-05-05T07:03:45.836Z,102192.69
2023-05-05T07:06:13.801Z,102192.72
2023-05-05T07:08:41.678Z,102195.34
2023-05-05T07:11:09.556Z,102216.81
2023-05-05T07:13:37.394Z,102223.72
2023-05-05T07:16:06.585Z,102215.91
2023-05-05T07:18:34.930Z,102233.19
2023-05-05T07:21:05.942Z,102222.91
2023-05-05T07:23:35.129Z,102230.75
2023-05-05T07:26:02.977Z,102216.13
2023-05-05T07:28:30.828Z,102256.81
2023-05-05T07:30:58.685Z,102255.00
2023-05-05T07:33:27.682Z,102237.78
2023-05-05T07:35:55.651Z,102240.34
2023-05-05T07:38:25.721Z,102239.50
2023-05-05T07:40:53.654Z,102249.94
2023-05-05T07:43:21.551Z,102260.38
2023-05-05T07:45:49.733Z,102259.44
2023-05-05T07:48:17.643Z,102260.28
2023-05-05T07:50:45.610Z,102239.63
2023-05-05T07:53:15.082Z,102258.66
2023-05-05T07:55:44.589Z,102250.91
2023-05-05T07:58:12.481Z,102298.47
2023-05-05T08:00:40.957Z,102251.72
2023-05-05T08:03:11.606Z,102250.91
2023-05-05T08:05:40.844Z,102269.94
2023-05-05T08:08:08.843Z,102242.19
2023-05-05T08:10:36.692Z,102239.63
2023-05-05T08:13:06.256Z,102246.59
2023-05-05T08:15:34.173Z,102243.94
2023-05-05T08:18:02.112Z,102266.47
2023-05-05T08:20:30.589Z,102250.84
2023-05-05T08:22:58.853Z,102243.06
2023-05-05T08:25:27.490Z,102255.22
2023-05-05T08:27:55.710Z,102251.78
2023-05-05T08:30:24.944Z,102256.06
2023-05-05T08:32:52.925Z,102259.53
2023-05-05T08:35:21.030Z,102268.19
2023-05-05T08:37:48.994Z,102266.47
2023-05-05T08:40:17.199Z,102270.81
2023-05-05T08:42:46.431Z,102258.69
2023-05-05T08:45:14.526Z,102273.44
2023-05-05T08:47:44.583Z,102268.25
2023-05-05T08:50:12.998Z,102278.63
2023-05-05T08:52:44.333Z,102300.28
2023-05-05T08:55:20.784Z,102273.44
2023-05-05T08:57:52.959Z,102289.91
2023-05-05T09:00:22.040Z,102269.09
2023-05-05T09:02:51.899Z,102274.31
2023-05-05T09:05:20.637Z,102282.09
2023-05-05T09:07:48.976Z,102328.91
2023-05-05T09:10:16.990Z,102284.72
2023-05-05T09:12:45.525Z,102297.69
2023-05-05T09:15:14.674Z,102292.50
2023-05-05T09:17:43.108Z,102305.50
2023-05-05T09:20:14.014Z,102291.63
2023-05-05T09:22:42.900Z,102302.03
2023-05-05T09:25:12.643Z,102276.00
2023-05-05T09:27:42.092Z,102283.81
2023-05-05T09:30:12.608Z,102309.81
2023-05-05T09:32:47.721Z,102304.63
2023-05-05T09:35:19.188Z,102292.38
2023-05-05T09:37:48.611Z,102334.09
2023-05-05T09:40:17.795Z,102328.03
2023-05-05T09:42:46.004Z,102308.97
2023-05-05T09:45:27.385Z,102326.28
2023-05-05T09:47:59.899Z,102326.31
2023-05-05T09:50:32.639Z,102288.09
2023-05-05T09:53:02.464Z,102298.47
2023-05-05T09:55:31.370Z,102296.84
2023-05-05T09:58:06.367Z,102287.25
2023-05-05T10:00:39.624Z,102285.50
2023-05-05T10:03:07.743Z,102286.38
2023-05-05T10:05:48.184Z,102307.19
2023-05-05T10:08:16.248Z,102290.69
2023-05-05T10:10:52.415Z,102319.34
2023-05-05T10:13:21.661Z,102300.16
2023-05-05T10:15:51.938Z,102298.50
2023-05-05T10:18:24.865Z,102305.50
2023-05-05T10:20:59.147Z,102309.81
2023-05-05T10:23:30.238Z,102283.78
2023-05-05T10:26:02.964Z,102301.09
2023-05-05T10:28:35.632Z,102289.03
2023-05-05T10:31:10.086Z,102297.69
2023-05-05T10:33:47.080Z,102269.91
2023-05-05T10:36:17.930Z,102267.25
2023-05-05T10:38:46.707Z,102279.41
2023-05-05T10:41:15.069Z,102277.75
2023-05-05T10:43:43.572Z,102273.28
2023-05-05T10:46:11.729Z,102289.72
2023-05-05T10:48:46.137Z,102275.88
2023-05-05T10:51:39.288Z,102282.06
2023-05-05T10:54:13.490Z,102302.91
2023-05-05T10:56:42.274Z,102340.13
2023-05-05T10:59:40.451Z,102298.50
2023-05-05T11:02:25.618Z,102300.66
2023-05-05T11:05:07.522Z,102283.75
2023-05-05T11:07:37.062Z,102273.41
2023-05-05T11:10:06.153Z,102300.22
2023-05-05T11:12:38.772Z,102290.50
2023-05-05T11:15:37.802Z,102280.22
2023-05-05T11:18:08.293Z,102284.50
2023-05-05T11:21:07.270Z,102301.00
2023-05-05T11:23:37.245Z,102298.44
2023-05-05T11:26:05.190Z,102288.97
2023-05-05T11:28:33.220Z,102295.84
2023-05-05T11:31:18.408Z,102275.06
2023-05-05T11:33:46.801Z,102287.22
2023-05-05T11:36:16.066Z,102278.56
2023-05-05T11:39:00.037Z,102266.47
2023-05-05T11:41:36.950Z,102263.03
2023-05-05T11:44:11.896Z,102262.91
2023-05-05T11:46:40.987Z,102265.53
2023-05-05T11:49:10.032Z,102287.22
2023-05-05T11:51:37.996Z,102275.94
2023-05-05T11:54:07.355Z,102258.59
2023-05-05T11:56:35.905Z,102252.56
2023-05-05T11:59:09.334Z,102254.28
2023-05-05T12:01:40.937Z,102241.22
2023-05-05T12:04:09.737Z,102237.72
2023-05-05T12:06:37.755Z,102249.03
2023-05-05T12:09:07.140Z,102241.28
2023-05-05T12:11:35.044Z,102236.91
2023-05-05T12:14:10.433Z,102236.94
2023-05-05T12:16:38.853Z,102238.75
2023-05-05T12:19:07.401Z,102242.16
2023-05-05T12:21:36.249Z,102236.97
2023-05-05T12:24:04.279Z,102228.31
2023-05-05T12:26:33.797Z,102215.28
2023-05-05T12:29:02.080Z,102230.03
2023-05-05T12:31:36.904Z,102207.53
2023-05-05T12:34:05.549Z,102259.53
2023-05-05T12:36:34.095Z,102209.22
2023-05-05T12:39:02.034Z,102207.50
2023-05-05T12:41:30.003Z,102200.56
2023-05-05T12:44:00.345Z,102220.53
2023-05-05T12:46:31.208Z,102237.91
2023-05-05T12:49:05.179Z,102229.22
2023-05-05T12:51:35.997Z,102198.88
2023-05-05T12:54:05.732Z,102185.03
2023-05-05T12:56:37.545Z,102217.13
2023-05-05T12:59:08.790Z,102205.00
2023-05-05T13:01:37.816Z,102189.41
2023-05-05T13:04:12.824Z,102185.00
2023-05-05T13:06:41.434Z,102189.34
2023-05-05T13:09:10.068Z,102182.41
2023-05-05T13:11:38.605Z,102184.16
2023-05-05T13:14:08.344Z,102161.59
2023-05-05T13:16:36.428Z,102174.63
2023-05-05T13:19:04.354Z,102178.97
2023-05-05T13:21:32.711Z,102175.50
2023-05-05T13:24:18.286Z,102174.66
2023-05-05T13:26:48.830Z,102159.03
2023-05-05T13:29:18.430Z,102165.09
2023-05-05T13:31:47.228Z,102159.94
2023-05-05T13:34:15.530Z,102155.59
2023-05-05T13:36:43.365Z,102159.03
2023-05-05T13:39:11.325Z,102158.97
2023-05-05T13:41:42.241Z,102181.53
2023-05-05T13:44:10.199Z,102147.69
2023-05-05T13:46:39.446Z,102169.38
2023-05-05T13:49:07.429Z,102150.28
2023-05-05T13:51:35.690Z,102170.28
2023-05-05T13:54:04.041Z,102157.25
2023-05-05T13:56:31.972Z,102142.50
2023-05-05T13:58:59.890Z,102167.69
2023-05-05T14:01:27.876Z,102146.09
2023-05-05T14:03:57.851Z,102163.41
2023-05-05T14:06:26.481Z,102151.25
2023-05-05T14:08:54.551Z,102159.06
2023-05-05T14:11:22.962Z,102153.81
2023-05-05T14:13:52.041Z,102166.88
2023-05-05T14:16:20.173Z,102147.78
2023-05-05T14:18:48.320Z,102153.84
2023-05-05T14:21:17.676Z,102155.63
2023-05-05T14:23:45.621Z,102140.88
2023-05-05T14:26:13.588Z,102149.53
2023-05-05T14:28:42.309Z,102143.44
2023-05-05T14:31:11.261Z,102165.09
2023-05-05T14:33:39.457Z,102185.06
2023-05-05T14:36:07.947Z,102158.22
2023-05-05T14:38:37.377Z,102133.94
2023-05-05T14:41:05.773Z,102126.97
2023-05-05T14:43:33.737Z,102140.03
2023-05-05T14:46:06.733Z,102147.84
2023-05-05T14:48:35.236Z,102125.31
2023-05-05T14:51:04.411Z,102108.84
2023-05-05T14:53:32.672Z,102116.66
2023-05-05T14:56:03.283Z,102133.97
2023-05-05T14:58:31.465Z,102132.25
2023-05-05T15:01:00.784Z,102133.06
2023-05-05T15:03:29.070Z,102123.53
2023-05-05T15:05:57.381Z,102115.78
2023-05-05T15:08:25.368Z,102124.44
2023-05-05T15:10:54.126Z,102112.31
2023-05-05T15:13:23.632Z,102130.50
2023-05-05T15:15:51.762Z,102135.72
2023-05-05T15:18:20.121Z,102124.41
2023-05-05T15:20:47.995Z,102113.13
2023-05-05T15:23:16.166Z,102146.00
2023-05-05T15:25:44.107Z,102127.84
2023-05-05T15:28:11.947Z,102120.09
2023-05-05T15:30:41.495Z,102112.31
2023-05-05T15:33:09.415Z,102106.22
2023-05-05T15:35:37.397Z,102112.28
2023-05-05T15:38:05.578Z,102110.56
2023-05-05T15:40:33.501Z,102118.34
2023-05-05T15:43:01.349Z,102107.94
2023-05-05T15:45:29.255Z,102133.03
2023-05-05T15:47:58.624Z,102129.56
2023-05-05T15:50:26.816Z,102117.44
2023-05-05T15:52:56.806Z,102120.88
2023-05-05T15:55:25.089Z,102126.09
2023-05-05T15:57:53.044Z,102139.03
2023-05-05T16:00:21.517Z,102143.31
2023-05-05T16:02:49.478Z,102137.28
2023-05-05T16:05:20.712Z,102124.25
2023-05-05T16:07:50.698Z,102110.44
2023-05-05T16:10:19.468Z,102113.88
2023-05-05T16:12:47.435Z,102113.94
2023-05-05T16:15:15.733Z,102107.00
2023-05-05T16:17:43.958Z,102102.66
2023-05-05T16:20:12.926Z,102095.69
2023-05-05T16:22:42.378Z,102095.63
2023-05-05T16:25:11.130Z,102090.44
2023-05-05T16:27:39.286Z,102093.88
2023-05-05T16:30:08.874Z,102092.13
2023-05-05T16:32:36.769Z,102087.81
2023-05-05T16:35:07.288Z,102085.22
2023-05-05T16:37:35.584Z,102092.13
2023-05-05T16:40:06.016Z,102080.88
2023-05-05T16:42:34.042Z,102094.69
2023-05-05T16:45:01.906Z,102067.88
2023-05-05T16:47:29.819Z,102089.44
2023-05-05T16:49:58.153Z,102074.72
2023-05-05T16:52:26.053Z,102066.97
2023-05-05T16:54:55.635Z,102072.91
2023-05-05T16:57:25.201Z,102065.16
2023-05-05T16:59:56.206Z,102059.94
2023-05-05T17:02:24.175Z,102049.63
2023-05-05T17:04:52.194Z,102054.72
2023-05-05T17:07:20.113Z,102036.53
2023-05-05T17:09:48.341Z,102076.19
2023-05-05T17:12:16.300Z,102053.69
2023-05-05T17:14:46.348Z,102048.59
2023-05-05T17:17:14.316Z,102057.13
2023-05-05T17:19:42.779Z,102057.13
2023-05-05T17:22:10.901Z,102063.25
2023-05-05T17:24:39.454Z,102056.34
2023-05-05T17:27:07.604Z,102053.69
2023-05-05T17:29:40.770Z,102049.34
2023-05-05T17:32:10.544Z,102056.25
2023-05-05T17:34:38.676Z,102054.56
2023-05-05T17:37:06.656Z,102058.00
2023-05-05T17:39:34.634Z,102053.63
2023-05-05T17:42:02.685Z,102062.22
2023-05-05T17:44:31.482Z,102065.59
2023-05-05T17:46:59.484Z,102060.41
2023-05-05T17:49:28.740Z,102052.53
2023-05-05T17:51:56.609Z,102062.91
2023-05-05T17:54:30.855Z,102052.56
2023-05-05T17:57:02.528Z,102057.72
2023-05-05T17:59:33.412Z,102043.91
2023-05-05T18:02:04.333Z,102044.75
2023-05-05T18:04:37.404Z,102044.72
2023-05-05T18:07:05.994Z,102030.91
2023-05-05T18:09:37.150Z,102036.97
2023-05-05T18:12:08.569Z,102033.56
2023-05-05T18:14:39.418Z,102027.47
2023-05-05T18:17:10.351Z,102033.47
2023-05-05T18:19:46.622Z,102036.91
2023-05-05T18:22:19.607Z,102009.34
2023-05-05T18:24:50.509Z,102035.19
2023-05-05T18:27:21.390Z,102034.31
2023-05-05T18:29:53.138Z,102008.50
2023-05-05T18:32:24.441Z,102019.75
2023-05-05T18:34:56.793Z,102017.16
2023-05-05T18:37:27.939Z,102028.31
2023-05-05T18:39:58.879Z,102021.38
2023-05-05T18:42:29.791Z,102017.00
2023-05-05T18:45:00.771Z,102028.25
2023-05-05T18:47:31.833Z,102020.47
2023-05-05T18:50:04.591Z,102025.72
2023-05-05T18:52:35.576Z,102024.75
2023-05-05T18:55:07.535Z,102032.53
2023-05-05T18:57:38.766Z,102034.28
2023-05-05T19:00:11.438Z,102036.88
2023-05-05T19:02:41.357Z,102045.50
2023-05-05T19:05:12.865Z,102054.03
2023-05-05T19:07:42.509Z,102035.09
2023-05-05T19:10:12.753Z,102053.19
2023-05-05T19:12:43.083Z,102038.44
2023-05-05T19:15:13.266Z,102031.56
2023-05-05T19:17:42.100Z,102030.69
2023-05-05T19:20:13.444Z,102030.78
2023-05-05T19:22:42.839Z,102036.75
2023-05-05T19:25:14.488Z,102033.28
2023-05-05T19:27:43.682Z,102030.78
2023-05-05T19:30:13.744Z,102026.41
2023-05-05T19:32:44.617Z,102039.41
2023-05-05T19:35:17.384Z,102029.88
2023-05-05T19:37:48.637Z,102034.06
2023-05-05T19:40:19.767Z,102029.75
2023-05-05T19:42:50.992Z,102039.22
2023-05-05T19:45:22.214Z,102041.78
2023-05-05T19:47:53.184Z,102041.00
2023-05-05T19:50:26.350Z,102032.38
2023-05-05T19:52:57.958Z,102050.44
2023-05-05T19:55:28.950Z,102037.47
2023-05-05T19:57:59.912Z,102038.50
2023-05-05T20:00:31.289Z,102037.53
2023-05-05T20:03:02.338Z,102039.25
2023-05-05T20:05:34.712Z,102034.97
2023-05-05T20:08:06.215Z,102028.88
2023-05-05T20:10:37.154Z,102016.94
2023-05-05T20:13:08.064Z,102022.09
2023-05-05T20:15:39.470Z,102022.03
2023-05-05T20:18:10.579Z,102028.16
2023-05-05T20:20:43.183Z,102022.16
2023-05-05T20:23:14.208Z,102026.47
2023-05-05T20:25:45.542Z,102031.63
2023-05-05T20:28:16.409Z,102042.78
2023-05-05T20:30:48.224Z,102044.53
2023-05-05T20:33:19.133Z,102039.31
2023-05-05T20:35:51.430Z,102041.88
2023-05-05T20:38:22.793Z,102047.94
2023-05-05T20:40:53.703Z,102033.25
2023-05-05T20:43:25.267Z,102041.84
2023-05-05T20:45:56.577Z,102035.81
2023-05-05T20:48:27.534Z,102037.63
2023-05-05T20:50:59.882Z,102027.19
2023-05-05T20:53:30.727Z,102034.94
2023-05-05T20:56:01.728Z,102026.34
2023-05-05T20:58:32.680Z,102011.69
2023-05-05T21:01:03.600Z,102003.91
2023-05-05T21:03:34.503Z,102018.56
2023-05-05T21:06:07.087Z,102009.09
2023-05-05T21:08:39.505Z,102015.19
2023-05-05T21:11:10.599Z,102004.88
2023-05-05T21:13:41.568Z,102007.44
2023-05-05T21:16:12.815Z,102004.91
2023-05-05T21:18:46.674Z,101999.72
2023-05-05T21:21:18.902Z,101997.19
2023-05-05T21:23:49.746Z,101998.97
2023-05-05T21:26:21.154Z,101997.16
2023-05-05T21:28:52.141Z,101989.47
2023-05-05T21:31:23.412Z,102004.13
2023-05-05T21:33:54.308Z,101997.22
2023-05-05T21:36:27.435Z,101992.94
2023-05-05T21:39:00.343Z,102001.47
2023-05-05T21:41:31.422Z,101989.44
2023-05-05T21:44:02.408Z,101988.59
2023-05-05T21:46:33.368Z,101999.75
2023-05-05T21:49:12.894Z,101978.31
2023-05-05T21:51:46.272Z,101978.31
2023-05-05T21:54:17.151Z,101977.41
2023-05-05T21:56:48.057Z,101967.94
2023-05-05T21:59:18.972Z,101967.09
2023-05-05T22:01:50.142Z,101961.06
2023-05-05T22:04:19.920Z,101957.59
2023-05-05T22:06:51.021Z,101968.81
2023-05-05T22:09:19.075Z,101974.88
2023-05-05T22:11:49.979Z,101964.53
2023-05-05T22:14:21.434Z,101966.22
2023-05-05T22:16:52.329Z,101971.38
2023-05-05T22:19:24.237Z,101981.72
2023-05-05T22:21:57.265Z,101966.25
2023-05-05T22:24:27.992Z,101958.50
2023-05-05T22:26:58.974Z,101961.09
2023-05-05T22:29:29.897Z,101967.06
2023-05-05T22:32:00.838Z,101958.47
2023-05-05T22:34:31.754Z,101950.69
2023-05-05T22:37:04.016Z,101953.31
2023-05-05T22:39:34.981Z,101949.91
2023-05-05T22:42:06.143Z,101942.06
2023-05-05T22:44:37.025Z,101941.25
2023-05-05T22:47:09.127Z,101940.38
2023-05-05T22:49:40.265Z,101942.06
2023-05-05T22:52:12.576Z,101939.47
2023-05-05T22:54:43.521Z,101949.81
2023-05-05T22:57:14.428Z,101945.47
2023-05-05T22:59:45.375Z,101946.34
2023-05-05T23:02:16.299Z,101956.69
2023-05-05T23:04:47.429Z,101938.63
2023-05-05T23:07:19.877Z,101942.91
2023-05-05T23:09:50.723Z,101952.41
2023-05-05T23:12:21.595Z,101947.19
2023-05-05T23:14:52.495Z,101954.09
2023-05-05T23:17:23.493Z,101956.69
2023-05-05T23:19:54.414Z,101939.34
2023-05-05T23:22:24.616Z,101940.25
2023-05-05T23:24:54.787Z,101928.97
2023-05-05T23:27:23.778Z,101917.69
2023-05-05T23:29:54.630Z,101919.38
2023-05-05T23:32:25.644Z,101920.22
2023-05-05T23:34:56.855Z,101918.50
2023-05-05T23:37:29.107Z,101909.03
2023-05-05T23:39:59.455Z,101897.75
2023-05-05T23:42:30.330Z,101883.97
2023-05-05T23:45:01.311Z,101884.81
2023-05-05T23:47:32.328Z,101884.84
2023-05-05T23:50:03.579Z,101871.03
2023-05-05T23:52:35.863Z,101867.56
2023-05-05T23:55:07.556Z,101860.66
2023-05-05T23:57:39.018Z,101864.97
